Time;durP1;ratioP1;P1;durP2;ratioP2;P2;SDS_P1;SDS_P2;PMS_P1;PMS_P2;Temp;Humidity;BMP_temperature;BMP_pressure;BME280_temperature;BME280_humidity;BME280_pressure;Samples;Min_cycle;Max_cycle;Signal;HPM_P1;HPM_P2
2024/04/27 00:00:31;;;;;;;4.80;3.00;;;7.60;99.90;;;;;;6374393;22;20011;-68
2024/04/27 00:02:57;;;;;;;4.10;3.15;;;7.50;99.90;;;;;;6374956;22;20015;-68
2024/04/27 00:05:23;;;;;;;4.13;2.85;;;7.60;99.90;;;;;;6374220;22;20080;-68
2024/04/27 00:07:49;;;;;;;2.95;2.67;;;7.50;99.90;;;;;;6374858;22;20011;-67
2024/04/27 00:10:15;;;;;;;4.50;3.13;;;7.50;99.90;;;;;;6374385;22;20014;-67
2024/04/27 00:12:41;;;;;;;3.85;2.90;;;7.40;99.90;;;;;;6374208;22;20010;-68
2024/04/27 00:15:07;;;;;;;3.70;3.33;;;7.40;99.90;;;;;;6372572;22;20007;-68
2024/04/27 00:17:33;;;;;;;3.30;3.00;;;7.50;99.90;;;;;;6373221;22;20003;-67
2024/04/27 00:20:01;;;;;;;3.88;3.08;;;7.40;99.90;;;;;;6374706;22;20099;-68
2024/04/27 00:22:27;;;;;;;4.47;2.90;;;7.40;99.90;;;;;;6374522;22;20007;-68
2024/04/27 00:24:53;;;;;;;4.22;2.85;;;7.40;99.90;;;;;;6374564;22;20018;-68
2024/04/27 00:27:18;;;;;;;3.25;2.53;;;7.30;99.90;;;;;;6374131;22;20419;-68
2024/04/27 00:29:44;;;;;;;4.03;3.17;;;7.30;99.90;;;;;;6330966;22;20419;-68
2024/04/27 00:32:11;;;;;;;5.10;4.07;;;7.30;99.90;;;;;;6373739;22;20078;-68
2024/04/27 00:34:38;;;;;;;3.47;3.17;;;7.30;99.90;;;;;;6373995;22;20441;-68
2024/04/27 00:37:04;;;;;;;9.85;3.42;;;7.30;99.90;;;;;;6374814;22;20003;-68
2024/04/27 00:39:29;;;;;;;4.65;3.22;;;7.20;99.90;;;;;;6374556;22;20003;-68
2024/04/27 00:41:55;;;;;;;3.63;3.30;;;7.10;99.90;;;;;;6373905;22;20426;-67
2024/04/27 00:44:21;;;;;;;5.97;3.13;;;7.10;99.90;;;;;;6374247;22;20017;-68
2024/04/27 00:46:47;;;;;;;3.42;3.13;;;7.00;99.90;;;;;;6373415;22;20011;-68
2024/04/27 00:49:13;;;;;;;5.20;2.90;;;7.00;99.90;;;;;;6374277;22;20013;-68
2024/04/27 00:51:39;;;;;;;5.30;3.25;;;6.90;99.90;;;;;;6373766;22;20079;-68
2024/04/27 00:54:05;;;;;;;3.17;2.75;;;7.00;99.90;;;;;;6373536;22;20455;-68
2024/04/27 00:56:31;;;;;;;6.18;3.03;;;6.90;99.90;;;;;;6374210;22;20015;-68
2024/04/27 00:58:58;;;;;;;3.60;3.20;;;6.90;99.90;;;;;;6374097;22;20003;-68
2024/04/27 01:01:25;;;;;;;3.67;2.97;;;6.80;99.90;;;;;;6373820;22;20419;-67
2024/04/27 01:03:51;;;;;;;4.18;2.92;;;6.80;99.90;;;;;;6374291;22;20015;-68
2024/04/27 01:06:17;;;;;;;4.25;3.20;;;6.70;99.90;;;;;;6374057;22;20347;-68
2024/04/27 01:08:51;;;;;;;3.70;3.40;;;6.80;99.90;;;;;;6373974;22;20003;-67
2024/04/27 01:11:21;;;;;;;3.55;3.25;;;6.80;99.90;;;;;;6372484;22;20003;-68
2024/04/27 01:13:50;;;;;;;6.30;3.55;;;6.80;99.90;;;;;;6373737;22;20060;-68
2024/04/27 01:16:17;;;;;;;4.38;3.45;;;6.90;99.90;;;;;;6370940;22;19999;-67
2024/04/27 01:18:43;;;;;;;6.32;3.30;;;6.80;99.90;;;;;;6372398;22;20036;-67
2024/04/27 01:21:09;;;;;;;4.05;3.72;;;6.80;99.90;;;;;;6371941;22;20020;-67
2024/04/27 01:23:35;;;;;;;4.03;3.72;;;6.80;99.90;;;;;;6371096;22;20021;-67
2024/04/27 01:26:00;;;;;;;5.07;3.47;;;6.80;99.90;;;;;;6372476;22;20077;-65
2024/04/27 01:28:26;;;;;;;5.35;3.95;;;6.80;99.90;;;;;;6370054;22;20014;-65
2024/04/27 01:30:52;;;;;;;4.28;3.45;;;6.90;99.90;;;;;;6373501;22;20439;-65
2024/04/27 01:33:17;;;;;;;4.75;3.65;;;6.90;99.90;;;;;;6372299;22;20003;-65
2024/04/27 01:35:44;;;;;;;5.72;3.60;;;6.90;99.90;;;;;;6373612;22;20017;-64
2024/04/27 01:38:09;;;;;;;6.07;4.25;;;6.80;99.90;;;;;;6372636;22;20011;-65
2024/04/27 01:40:35;;;;;;;4.95;3.90;;;6.80;99.90;;;;;;6329254;22;20083;-64
2024/04/27 01:43:01;;;;;;;5.72;4.32;;;6.90;99.90;;;;;;6373007;22;20004;-65
2024/04/27 01:45:27;;;;;;;5.63;4.18;;;6.80;99.90;;;;;;6372126;22;20017;-65
2024/04/27 01:47:53;;;;;;;5.00;4.55;;;6.80;99.90;;;;;;6372034;22;20015;-65
2024/04/27 01:50:19;;;;;;;10.50;4.80;;;6.80;99.90;;;;;;6371849;22;20007;-65
2024/04/27 01:52:45;;;;;;;6.35;4.03;;;6.80;99.90;;;;;;6372559;22;20015;-65
2024/04/27 01:55:10;;;;;;;4.57;4.18;;;6.80;99.90;;;;;;6372713;22;20075;-65
2024/04/27 01:57:36;;;;;;;4.72;4.32;;;6.80;99.90;;;;;;6371512;22;20007;-65
2024/04/27 02:00:02;;;;;;;5.00;4.00;;;6.80;99.90;;;;;;6372668;22;20007;-65
2024/04/27 02:02:28;;;;;;;5.78;4.45;;;6.80;99.90;;;;;;6373505;22;20014;-64
2024/04/27 02:04:56;;;;;;;6.03;4.78;;;6.80;99.90;;;;;;6372197;22;20007;-65
2024/04/27 02:07:22;;;;;;;5.15;4.65;;;6.70;99.90;;;;;;6373432;22;20043;-65
2024/04/27 02:09:48;;;;;;;4.78;3.83;;;6.70;99.90;;;;;;6371230;22;20003;-65
2024/04/27 02:12:14;;;;;;;5.00;3.60;;;6.70;99.90;;;;;;6373029;22;20018;-65
2024/04/27 02:14:42;;;;;;;5.80;4.30;;;6.70;99.90;;;;;;6371277;22;20003;-65
2024/04/27 02:19:53;;;;;;;4.47;4.07;;;6.60;99.90;;;;;;6371104;22;20070;-65
2024/04/27 02:22:19;;;;;;;5.53;4.10;;;6.60;99.90;;;;;;6372842;22;20015;-65
2024/04/27 02:24:45;;;;;;;4.70;3.90;;;6.50;99.90;;;;;;6372931;22;20003;-65
2024/04/27 02:27:10;;;;;;;4.68;3.88;;;6.50;99.90;;;;;;6371695;22;20078;-65
2024/04/27 02:29:36;;;;;;;4.05;3.75;;;6.50;99.90;;;;;;6373078;22;20003;-65
2024/04/27 02:32:02;;;;;;;6.88;3.95;;;6.50;99.90;;;;;;6372221;22;19999;-65
2024/04/27 02:34:27;;;;;;;5.57;4.18;;;6.40;99.90;;;;;;6373507;22;20003;-65
2024/04/27 02:36:53;;;;;;;4.10;3.63;;;6.30;99.90;;;;;;6373085;22;20010;-65
2024/04/27 02:39:19;;;;;;;4.38;3.97;;;6.30;99.90;;;;;;6373767;22;20014;-64
2024/04/27 02:41:45;;;;;;;4.57;3.90;;;6.30;99.90;;;;;;6375447;22;20018;-65
2024/04/27 02:44:10;;;;;;;6.68;4.30;;;6.30;99.90;;;;;;6375638;22;20324;-65
2024/04/27 02:46:36;;;;;;;4.57;4.18;;;6.30;99.90;;;;;;6374520;22;20083;-65
2024/04/27 02:49:02;;;;;;;5.07;4.15;;;6.20;99.90;;;;;;6375108;22;20031;-65
2024/04/27 02:51:28;;;;;;;4.95;4.15;;;6.00;99.90;;;;;;6374698;22;20322;-65
2024/04/27 02:53:53;;;;;;;4.20;3.80;;;6.00;99.90;;;;;;6374920;22;19999;-65
2024/04/27 02:56:19;;;;;;;4.43;4.13;;;6.00;99.90;;;;;;6374913;22;20038;-65
2024/04/27 02:58:45;;;;;;;7.50;4.43;;;5.90;99.90;;;;;;6375159;22;20010;-65
2024/04/27 03:01:10;;;;;;;4.95;4.53;;;5.80;99.90;;;;;;6374871;22;20078;-65
2024/04/27 03:03:36;;;;;;;4.72;4.22;;;5.80;99.90;;;;;;6374390;22;20003;-65
2024/04/27 03:06:02;;;;;;;6.15;4.68;;;5.70;99.90;;;;;;6374538;22;20017;-65
2024/04/27 03:08:29;;;;;;;5.03;4.55;;;5.70;99.90;;;;;;6375111;22;20711;-65
2024/04/27 03:10:56;;;;;;;5.43;4.93;;;5.60;99.90;;;;;;6374747;22;20003;-65
2024/04/27 03:13:24;;;;;;;6.47;5.28;;;5.70;99.90;;;;;;6375136;22;20082;-65
2024/04/27 03:15:49;;;;;;;5.78;5.22;;;5.70;99.90;;;;;;6375132;22;20007;-65
2024/04/27 03:18:15;;;;;;;6.63;4.80;;;5.70;99.90;;;;;;6374371;22;20018;-65
2024/04/27 03:20:41;;;;;;;6.18;5.45;;;5.70;99.90;;;;;;6374357;22;20095;-65
2024/04/27 03:23:07;;;;;;;6.10;5.03;;;5.80;99.90;;;;;;6373972;22;20421;-65
2024/04/27 03:25:32;;;;;;;4.97;4.40;;;5.80;99.90;;;;;;6373648;22;20013;-65
2024/04/27 03:28:03;;;;;;;5.57;5.07;;;5.80;99.90;;;;;;6374504;22;20105;-65
2024/04/27 03:30:32;;;;;;;6.28;5.30;;;5.90;99.90;;;;;;6375167;22;20011;-65
2024/04/27 03:32:58;;;;;;;6.93;5.07;;;5.80;99.90;;;;;;6374798;22;20003;-65
2024/04/27 03:35:24;;;;;;;5.13;4.72;;;5.80;99.90;;;;;;6375483;22;20035;-65
2024/04/27 03:37:51;;;;;;;7.32;5.07;;;5.90;99.90;;;;;;6374379;22;20284;-65
2024/04/27 03:40:18;;;;;;;11.90;5.68;;;5.80;99.90;;;;;;6373566;22;20018;-65
2024/04/27 03:42:43;;;;;;;6.47;5.65;;;5.80;99.90;;;;;;6374470;22;20000;-66
2024/04/27 03:45:16;;;;;;;5.95;5.38;;;5.70;99.90;;;;;;6374667;22;20467;-65
2024/04/27 03:47:42;;;;;;;6.53;5.68;;;5.70;99.90;;;;;;6374678;22;20003;-65
2024/04/27 03:50:08;;;;;;;6.43;5.70;;;6.00;99.90;;;;;;6374496;22;20343;-65
2024/04/27 03:52:34;;;;;;;7.22;5.43;;;5.60;99.90;;;;;;6373398;22;20039;-65
2024/04/27 03:55:00;;;;;;;6.60;6.00;;;5.70;99.90;;;;;;6374868;22;20292;-65
2024/04/27 03:57:25;;;;;;;8.95;6.25;;;5.70;99.90;;;;;;6374566;22;20099;-66
2024/04/27 03:59:51;;;;;;;6.53;5.50;;;5.70;99.90;;;;;;6374566;22;20018;-65
2024/04/27 04:02:20;;;;;;;6.85;6.15;;;5.70;99.90;;;;;;6373750;22;20007;-65
2024/04/27 04:04:45;;;;;;;6.63;5.93;;;5.70;99.90;;;;;;6374141;22;20594;-66
2024/04/27 04:07:11;;;;;;;7.32;5.60;;;5.70;99.90;;;;;;6373714;22;20010;-65
2024/04/27 04:09:37;;;;;;;6.72;6.10;;;5.70;99.90;;;;;;6372992;22;19999;-65
2024/04/27 04:12:03;;;;;;;6.22;5.65;;;5.70;99.90;;;;;;6373645;22;20027;-65
2024/04/27 04:14:29;;;;;;;6.10;5.57;;;5.80;99.90;;;;;;6374796;22;19999;-65
2024/04/27 04:16:55;;;;;;;7.60;6.55;;;5.80;99.90;;;;;;6374538;22;20039;-65
2024/04/27 04:19:21;;;;;;;5.72;5.22;;;5.80;99.90;;;;;;6374265;22;20003;-65
2024/04/27 04:21:46;;;;;;;5.93;5.32;;;6.10;99.90;;;;;;6374453;22;20031;-65
2024/04/27 04:24:14;;;;;;;8.05;6.15;;;5.90;99.90;;;;;;6373648;22;20000;-65
2024/04/27 04:26:40;;;;;;;6.57;5.97;;;5.80;99.90;;;;;;6374337;22;20014;-65
2024/04/27 04:29:06;;;;;;;6.57;5.97;;;5.90;99.90;;;;;;6374042;22;20667;-65
2024/04/27 04:31:32;;;;;;;10.70;6.10;;;5.90;99.90;;;;;;6374159;22;20003;-65
2024/04/27 04:33:59;;;;;;;7.53;5.72;;;5.90;99.90;;;;;;6374347;22;20014;-65
2024/04/27 04:36:25;;;;;;;6.70;6.07;;;5.90;99.90;;;;;;6373788;22;20035;-65
2024/04/27 04:38:51;;;;;;;6.70;6.10;;;5.90;99.90;;;;;;6374249;22;20442;-65
2024/04/27 04:41:17;;;;;;;8.63;6.70;;;6.00;99.90;;;;;;6373822;22;20015;-66
2024/04/27 04:43:43;;;;;;;8.23;6.13;;;6.00;99.90;;;;;;6374148;22;20003;-66
2024/04/27 04:46:09;;;;;;;7.10;6.40;;;6.00;99.90;;;;;;6373760;22;20437;-65
2024/04/27 04:48:35;;;;;;;7.05;6.35;;;6.10;99.90;;;;;;6374088;22;20003;-65
2024/04/27 04:51:04;;;;;;;7.57;6.22;;;6.10;99.90;;;;;;6373835;22;20003;-65
2024/04/27 04:53:30;;;;;;;6.82;6.20;;;6.20;99.90;;;;;;6373730;22;20027;-65
2024/04/27 04:55:57;;;;;;;6.88;5.95;;;6.20;99.90;;;;;;6373892;22;20004;-65
2024/04/27 04:58:23;;;;;;;19.75;7.05;;;6.40;99.90;;;;;;6372555;22;20014;-64
2024/04/27 05:00:49;;;;;;;6.70;5.63;;;6.40;99.90;;;;;;6373534;22;20588;-65
2024/04/27 05:03:14;;;;;;;6.60;6.00;;;6.50;99.90;;;;;;6373558;22;20003;-65
2024/04/27 05:05:40;;;;;;;8.18;5.95;;;6.60;99.90;;;;;;6373933;22;20003;-65
2024/04/27 05:08:06;;;;;;;6.38;5.13;;;6.60;99.90;;;;;;6373670;22;20003;-65
2024/04/27 05:10:32;;;;;;;6.38;5.53;;;6.70;99.90;;;;;;6373733;22;20571;-65
2024/04/27 05:12:58;;;;;;;7.70;5.90;;;6.90;99.90;;;;;;6373340;22;20340;-65
2024/04/27 05:15:24;;;;;;;6.10;5.50;;;7.10;99.90;;;;;;6374011;22;20003;-65
2024/04/27 05:17:50;;;;;;;5.53;5.03;;;7.40;99.90;;;;;;6372603;22;20010;-65
2024/04/27 05:20:16;;;;;;;5.30;4.80;;;7.60;99.90;;;;;;6373721;22;20003;-65
2024/04/27 05:22:42;;;;;;;16.08;6.07;;;7.90;99.90;;;;;;6373540;22;20013;-65
2024/04/27 05:25:08;;;;;;;7.18;5.55;;;8.30;99.90;;;;;;6373738;22;20313;-65
2024/04/27 05:27:35;;;;;;;6.50;5.18;;;8.50;99.90;;;;;;6373925;22;20011;-65
2024/04/27 05:30:01;;;;;;;6.32;5.75;;;8.70;99.90;;;;;;6372323;22;20014;-66
2024/04/27 05:32:26;;;;;;;5.78;5.05;;;8.80;99.90;;;;;;6372841;22;20003;-65
2024/04/27 05:34:54;;;;;;;5.70;4.63;;;9.00;99.90;;;;;;6373893;22;20003;-65
2024/04/27 05:37:20;;;;;;;6.57;5.00;;;9.40;99.90;;;;;;6372010;22;20007;-65
2024/04/27 05:39:47;;;;;;;6.07;5.38;;;9.60;99.90;;;;;;6367690;22;20003;-65
2024/04/27 05:42:13;;;;;;;6.13;5.35;;;9.90;99.90;;;;;;6370737;22;20023;-65
2024/04/27 05:44:39;;;;;;;6.57;5.97;;;9.90;99.90;;;;;;6371575;22;20008;-65
2024/04/27 05:47:05;;;;;;;9.10;6.82;;;9.80;99.90;;;;;;6372846;22;20685;-65
2024/04/27 05:49:30;;;;;;;8.88;7.50;;;9.70;99.90;;;;;;6373084;22;19999;-65
2024/04/27 05:51:56;;;;;;;8.00;7.30;;;9.50;99.90;;;;;;6373438;22;20328;-65
2024/04/27 05:54:22;;;;;;;8.80;8.00;;;9.40;99.90;;;;;;6372807;22;20003;-65
2024/04/27 05:56:48;;;;;;;11.60;9.45;;;9.40;99.90;;;;;;6369465;22;20052;-65
2024/04/27 05:59:13;;;;;;;11.10;10.00;;;9.20;99.90;;;;;;6370386;22;20667;-65
2024/04/27 06:01:39;;;;;;;13.30;10.98;;;9.10;99.90;;;;;;6370296;22;20011;-65
2024/04/27 06:04:05;;;;;;;12.45;11.25;;;9.10;99.90;;;;;;6370398;22;20469;-65
2024/04/27 06:06:38;;;;;;;13.80;12.40;;;9.20;99.90;;;;;;6367689;22;20014;-65
2024/04/27 06:09:04;;;;;;;14.93;13.00;;;9.30;99.90;;;;;;6368475;22;20696;-64
2024/04/27 06:11:30;;;;;;;15.85;13.55;;;9.30;99.90;;;;;;6367168;22;20013;-65
2024/04/27 06:13:57;;;;;;;13.80;12.38;;;9.30;99.90;;;;;;6369513;22;20018;-65
2024/04/27 06:16:22;;;;;;;15.05;13.55;;;9.30;99.90;;;;;;6373420;22;20003;-65
2024/04/27 06:18:48;;;;;;;14.88;13.00;;;9.40;99.90;;;;;;6373593;22;20082;-65
2024/04/27 06:21:14;;;;;;;15.60;14.18;;;9.40;99.90;;;;;;6374032;22;20003;-65
2024/04/27 06:23:40;;;;;;;15.40;13.98;;;9.40;99.90;;;;;;6371893;22;20014;-65
2024/04/27 06:26:06;;;;;;;18.92;15.63;;;9.50;99.90;;;;;;6372488;22;20031;-65
2024/04/27 06:28:32;;;;;;;16.77;15.18;;;9.60;99.90;;;;;;6371572;22;20052;-65
2024/04/27 06:30:58;;;;;;;20.67;17.05;;;9.80;99.90;;;;;;6371131;22;20003;-65
2024/04/27 06:33:25;;;;;;;16.15;14.60;;;10.10;99.90;;;;;;6370140;22;19999;-65
2024/04/27 06:35:53;;;;;;;18.58;16.63;;;10.20;99.90;;;;;;6368795;22;20011;-65
2024/04/27 06:38:19;;;;;;;18.05;16.23;;;10.30;99.90;;;;;;6366893;22;20014;-65
2024/04/27 06:40:45;;;;;;;20.70;16.98;;;10.40;99.90;;;;;;6374277;22;20007;-65
2024/04/27 06:43:11;;;;;;;19.60;17.50;;;10.40;99.90;;;;;;6373410;22;20004;-64
2024/04/27 06:45:37;;;;;;;18.38;16.48;;;10.60;99.90;;;;;;6372370;22;20415;-65
2024/04/27 06:48:03;;;;;;;21.95;17.95;;;10.90;99.90;;;;;;6375541;22;20014;-65
2024/04/27 06:50:28;;;;;;;18.58;16.58;;;10.80;99.90;;;;;;6374336;22;20003;-65
2024/04/27 06:52:54;;;;;;;19.35;17.55;;;10.90;99.90;;;;;;6374806;22;20040;-65
2024/04/27 06:55:20;;;;;;;18.83;16.77;;;10.90;99.90;;;;;;6373591;22;20010;-65
2024/04/27 06:57:46;;;;;;;23.17;18.17;;;10.90;99.90;;;;;;6375129;22;20014;-65
2024/04/27 07:00:11;;;;;;;19.35;16.10;;;11.00;99.90;;;;;;6374818;22;20014;-65
2024/04/27 07:02:37;;;;;;;19.08;17.08;;;11.10;99.90;;;;;;6374840;22;20003;-65
2024/04/27 07:05:03;;;;;;;18.15;16.30;;;11.30;99.90;;;;;;6373476;22;19999;-65
2024/04/27 07:07:29;;;;;;;18.38;15.88;;;11.30;99.90;;;;;;6372729;22;20011;-65
2024/04/27 07:09:55;;;;;;;19.05;16.73;;;11.40;99.90;;;;;;6374949;22;20014;-65
2024/04/27 07:12:20;;;;;;;21.40;14.75;;;11.50;99.90;;;;;;6372047;22;20003;-65
2024/04/27 07:14:47;;;;;;;19.00;16.92;;;11.60;99.90;;;;;;6374022;22;20014;-65
2024/04/27 07:17:13;;;;;;;17.90;15.95;;;11.60;99.90;;;;;;6374332;22;19999;-65
2024/04/27 07:19:38;;;;;;;17.30;15.50;;;11.70;99.90;;;;;;6374929;22;20015;-64
2024/04/27 07:22:04;;;;;;;18.42;15.13;;;11.70;99.90;;;;;;6374678;22;20013;-64
2024/04/27 07:24:30;;;;;;;23.50;15.30;;;11.70;99.90;;;;;;6372960;22;20003;-65
2024/04/27 07:26:55;;;;;;;18.23;15.82;;;11.80;99.90;;;;;;6374459;22;20425;-65
2024/04/27 07:29:21;;;;;;;17.20;14.55;;;11.80;99.90;;;;;;6373691;22;20082;-65
2024/04/27 07:31:47;;;;;;;16.70;15.00;;;12.00;99.90;;;;;;6374754;22;20010;-65
2024/04/27 07:34:13;;;;;;;16.15;14.45;;;12.10;99.90;;;;;;6375107;22;20003;-65
2024/04/27 07:36:39;;;;;;;17.08;14.15;;;12.10;99.90;;;;;;6373511;22;20300;-65
2024/04/27 07:39:04;;;;;;;16.67;14.70;;;12.30;99.90;;;;;;6372775;22;20003;-65
2024/04/27 07:41:30;;;;;;;15.82;14.13;;;12.30;99.90;;;;;;6375021;22;20383;-65
2024/04/27 07:43:56;;;;;;;17.13;15.20;;;12.40;99.90;;;;;;6374389;22;20003;-65
2024/04/27 07:46:22;;;;;;;15.95;14.38;;;12.30;99.90;;;;;;6374929;22;20003;-65
2024/04/27 07:48:50;;;;;;;15.85;14.20;;;12.40;99.90;;;;;;6370364;22;20018;-65
2024/04/27 07:51:20;;;;;;;18.42;15.00;;;12.50;99.90;;;;;;6372927;22;20434;-65
2024/04/27 07:53:46;;;;;;;15.35;13.40;;;12.40;99.90;;;;;;6373918;22;20431;-65
2024/04/27 07:56:11;;;;;;;16.85;13.88;;;12.40;99.90;;;;;;6371280;22;20040;-65
2024/04/27 07:58:38;;;;;;;15.95;14.20;;;12.50;99.90;;;;;;6373760;22;20003;-64
2024/04/27 08:01:03;;;;;;;14.93;13.23;;;12.60;99.90;;;;;;6373773;22;20025;-64
2024/04/27 08:03:29;;;;;;;14.85;13.32;;;12.50;99.90;;;;;;6371169;22;19999;-64
2024/04/27 08:05:55;;;;;;;16.58;14.57;;;12.50;99.90;;;;;;6373728;22;20003;-65
2024/04/27 08:08:20;;;;;;;15.77;14.15;;;12.50;99.90;;;;;;6372265;22;20018;-65
2024/04/27 08:10:46;;;;;;;15.15;13.70;;;12.40;99.90;;;;;;6372309;22;20307;-65
2024/04/27 08:13:12;;;;;;;16.73;13.50;;;12.70;99.90;;;;;;6371037;22;20003;-64
2024/04/27 08:15:38;;;;;;;15.82;14.07;;;12.40;99.90;;;;;;6373472;22;20509;-65
2024/04/27 08:18:04;;;;;;;15.45;13.88;;;12.70;99.90;;;;;;6374176;22;20011;-65
2024/04/27 08:20:30;;;;;;;15.40;13.77;;;12.50;99.90;;;;;;6373578;22;19999;-65
2024/04/27 08:22:55;;;;;;;17.30;14.10;;;12.70;99.90;;;;;;6373960;22;20003;-65
2024/04/27 08:25:22;;;;;;;15.55;13.85;;;12.50;99.90;;;;;;6373858;22;20471;-65
2024/04/27 08:27:48;;;;;;;15.00;13.48;;;12.60;99.90;;;;;;6373033;22;20003;-65
2024/04/27 08:30:13;;;;;;;15.05;13.48;;;12.80;99.90;;;;;;6372050;22;20003;-65
2024/04/27 08:32:39;;;;;;;13.57;12.18;;;13.00;99.90;;;;;;6373065;22;20003;-65
2024/04/27 08:35:05;;;;;;;15.43;13.80;;;13.10;99.90;;;;;;6372246;22;20010;-66
2024/04/27 08:37:31;;;;;;;15.80;13.30;;;13.30;99.90;;;;;;6372950;22;20052;-65
2024/04/27 08:39:56;;;;;;;15.23;13.40;;;13.20;99.90;;;;;;6372022;22;20015;-65
2024/04/27 08:42:22;;;;;;;16.20;13.80;;;13.30;99.90;;;;;;6373518;22;20074;-65
2024/04/27 08:44:52;;;;;;;16.17;13.70;;;13.40;99.90;;;;;;6372883;22;20017;-65
2024/04/27 08:47:19;;;;;;;13.90;11.80;;;13.60;99.90;;;;;;6373918;22;20003;-67
2024/04/27 08:49:47;;;;;;;14.82;12.98;;;13.50;99.90;;;;;;6372664;22;20003;-68
2024/04/27 08:52:12;;;;;;;13.73;11.82;;;13.60;99.90;;;;;;6374680;22;20003;-69
2024/04/27 08:54:38;;;;;;;12.05;10.95;;;13.60;99.90;;;;;;6374632;22;20013;-68
2024/04/27 08:57:04;;;;;;;12.48;11.05;;;13.60;99.90;;;;;;6374393;22;20007;-67
2024/04/27 08:59:31;;;;;;;13.38;11.63;;;13.60;99.90;;;;;;6373492;22;20002;-66
2024/04/27 09:01:58;;;;;;;14.45;11.50;;;13.40;99.90;;;;;;6372618;22;20375;-65
2024/04/27 09:04:24;;;;;;;12.20;10.98;;;13.50;99.90;;;;;;6371047;22;20013;-67
2024/04/27 09:06:50;;;;;;;12.70;11.13;;;13.40;99.90;;;;;;6373869;22;20004;-66
2024/04/27 09:09:24;;;;;;;12.55;11.20;;;13.50;99.90;;;;;;6372782;22;20841;-67
2024/04/27 09:11:51;;;;;;;12.38;11.15;;;13.70;99.90;;;;;;6371409;22;20014;-68
2024/04/27 09:14:17;;;;;;;14.15;12.05;;;13.80;99.90;;;;;;6373205;22;19999;-67
2024/04/27 09:16:45;;;;;;;11.30;10.20;;;13.90;99.90;;;;;;6373391;22;20010;-67
2024/04/27 09:19:11;;;;;;;10.98;9.68;;;13.90;99.90;;;;;;6372763;22;20010;-67
2024/04/27 09:21:38;;;;;;;11.60;9.75;;;13.90;99.90;;;;;;6371720;22;20004;-67
2024/04/27 09:24:06;;;;;;;11.13;9.90;;;14.00;99.90;;;;;;6372795;22;20014;-67
2024/04/27 09:26:32;;;;;;;10.73;9.63;;;13.90;99.90;;;;;;6371805;22;20003;-67
2024/04/27 09:28:58;;;;;;;11.60;8.75;;;14.10;99.90;;;;;;6372310;22;20007;-67
2024/04/27 09:31:24;;;;;;;9.32;8.40;;;13.90;99.90;;;;;;6371605;22;20074;-67
2024/04/27 09:33:50;;;;;;;12.55;9.05;;;13.90;99.90;;;;;;6372753;22;20401;-67
2024/04/27 09:36:16;;;;;;;11.75;8.95;;;13.90;99.90;;;;;;6372069;22;20432;-67
2024/04/27 09:38:52;;;;;;;10.32;9.32;;;13.90;99.90;;;;;;6371408;22;20011;-67
2024/04/27 09:41:19;;;;;;;;;;;14.00;99.90;;;;;;6372568;22;20003;-67
2024/04/27 09:43:48;;;;;;;11.68;8.52;;;14.10;99.90;;;;;;6372827;22;20295;-68
2024/04/27 09:46:18;;;;;;;8.82;7.97;;;14.30;99.90;;;;;;6372907;22;20003;-69
2024/04/27 09:49:02;;;;;;;11.45;8.38;;;14.40;99.90;;;;;;6372936;22;20011;-67
2024/04/27 09:51:33;;;;;;;14.27;7.88;;;14.50;99.90;;;;;;6372817;22;20031;-67
2024/04/27 09:54:01;;;;;;;11.60;7.63;;;14.60;99.90;;;;;;6371108;22;19999;-68
2024/04/27 09:56:28;;;;;;;10.68;8.30;;;14.80;99.90;;;;;;6372260;22;20004;-68
2024/04/27 09:58:56;;;;;;;23.33;10.25;;;14.80;99.90;;;;;;6372219;22;20003;-68
2024/04/27 10:01:22;;;;;;;8.10;7.30;;;14.90;99.90;;;;;;6371996;22;20011;-68
2024/04/27 10:03:49;;;;;;;8.90;6.45;;;14.90;99.90;;;;;;6372244;22;20071;-67
2024/04/27 10:06:18;;;;;;;7.78;7.07;;;14.90;99.90;;;;;;6372205;22;20011;-67
2024/04/27 10:08:50;;;;;;;9.30;7.28;;;14.90;99.90;;;;;;6372193;22;20048;-67
2024/04/27 10:11:16;;;;;;;8.48;7.40;;;14.90;99.90;;;;;;6370062;22;20014;-67
2024/04/27 10:13:50;;;;;;;7.88;7.07;;;14.90;99.90;;;;;;6370947;22;19999;-70
2024/04/27 10:16:16;;;;;;;8.57;6.53;;;15.00;99.90;;;;;;6370475;22;19999;-68
2024/04/27 10:18:42;;;;;;;8.15;6.38;;;15.00;99.90;;;;;;6371953;22;20015;-68
2024/04/27 10:21:08;;;;;;;7.13;6.15;;;15.00;99.90;;;;;;6371487;22;20296;-67
2024/04/27 10:23:34;;;;;;;7.53;6.65;;;15.00;99.90;;;;;;6369672;22;20003;-68
2024/04/27 10:26:10;;;;;;;7.15;6.18;;;15.00;99.90;;;;;;6371087;22;20003;-67
2024/04/27 10:28:45;;;;;;;6.72;6.03;;;15.00;99.90;;;;;;6371548;22;20017;-67
2024/04/27 10:31:16;;;;;;;6.65;5.97;;;14.90;99.90;;;;;;6370109;22;20003;-68
2024/04/27 10:33:46;;;;;;;6.28;5.68;;;14.90;99.90;;;;;;6369335;22;20082;-67
2024/04/27 10:36:13;;;;;;;6.88;6.03;;;15.00;99.90;;;;;;6370784;22;20507;-68
2024/04/27 10:38:41;;;;;;;7.32;6.28;;;14.90;99.90;;;;;;6369958;22;20443;-67
2024/04/27 10:41:10;;;;;;;6.68;5.75;;;14.90;99.90;;;;;;6370395;22;20182;-67
2024/04/27 10:43:47;;;;;;;6.43;5.75;;;14.90;99.90;;;;;;6371130;22;20003;-67
2024/04/27 10:46:28;;;;;;;6.32;5.72;;;14.90;99.90;;;;;;6368342;22;20431;-68
2024/04/27 10:48:54;;;;;;;5.28;4.80;;;14.90;99.90;;;;;;6369065;22;20639;-68
2024/04/27 10:51:21;;;;;;;8.32;5.18;;;14.90;99.90;;;;;;6369728;22;20391;-68
2024/04/27 10:53:51;;;;;;;6.20;5.60;;;14.90;99.90;;;;;;6372082;22;20003;-68
2024/04/27 10:56:17;;;;;;;5.75;5.22;;;14.80;99.90;;;;;;6372406;22;20003;-68
2024/04/27 10:58:43;;;;;;;7.18;4.75;;;14.70;99.90;;;;;;6371502;22;19999;-68
2024/04/27 11:01:12;;;;;;;5.07;4.57;;;14.60;99.90;;;;;;6370955;22;20023;-67
2024/04/27 11:03:41;;;;;;;8.30;5.68;;;14.50;99.90;;;;;;6373903;22;20296;-67
2024/04/27 11:06:07;;;;;;;4.35;3.95;;;14.40;99.90;;;;;;6373727;22;20339;-67
2024/04/27 11:08:32;;;;;;;6.68;5.13;;;14.30;99.90;;;;;;6373329;22;20319;-67
2024/04/27 11:10:59;;;;;;;4.15;3.75;;;14.20;99.90;;;;;;6368219;22;19999;-67
2024/04/27 11:13:25;;;;;;;6.50;3.47;;;14.20;99.90;;;;;;6372902;22;20031;-68
2024/04/27 11:15:51;;;;;;;5.10;3.30;;;14.20;99.90;;;;;;6373302;22;20003;-68
2024/04/27 11:18:20;;;;;;;4.55;2.90;;;14.30;99.90;;;;;;6372611;22;20078;-67
2024/04/27 11:20:53;;;;;;;3.53;3.22;;;14.30;99.90;;;;;;6373083;22;20011;-68
2024/04/27 11:23:19;;;;;;;4.43;3.10;;;14.50;99.90;;;;;;6371267;22;20003;-67
2024/04/27 11:25:45;;;;;;;3.40;3.08;;;14.70;99.90;;;;;;6370565;22;20006;-69
2024/04/27 11:28:11;;;;;;;14.65;11.88;;;14.60;99.90;;;;;;6371431;22;20023;-70
2024/04/27 11:30:36;;;;;;;4.38;3.55;;;14.60;99.90;;;;;;6371836;22;20010;-70
2024/04/27 11:33:02;;;;;;;3.47;3.08;;;14.60;99.90;;;;;;6373217;22;20000;-67
2024/04/27 11:35:28;;;;;;;4.18;3.05;;;14.50;99.90;;;;;;6373050;22;20022;-67
2024/04/27 11:37:54;;;;;;;15.73;14.30;;;14.50;99.90;;;;;;6372376;22;20011;-67
2024/04/27 11:40:20;;;;;;;3.38;3.08;;;14.50;99.90;;;;;;6372761;22;20003;-67
2024/04/27 11:42:45;;;;;;;3.75;3.35;;;14.70;99.90;;;;;;6373635;22;20078;-67
2024/04/27 11:45:11;;;;;;;3.72;3.42;;;14.70;99.90;;;;;;6373046;22;20082;-67
2024/04/27 11:47:37;;;;;;;4.03;2.95;;;14.70;99.90;;;;;;6373824;22;20099;-67
2024/04/27 11:50:03;;;;;;;4.28;3.90;;;14.70;99.90;;;;;;6371734;22;20400;-67
2024/04/27 11:52:28;;;;;;;3.92;3.10;;;14.70;99.90;;;;;;6374206;22;20003;-67
2024/04/27 11:54:54;;;;;;;3.63;2.63;;;14.80;99.90;;;;;;6370700;22;20013;-67
2024/04/27 11:57:20;;;;;;;3.17;2.53;;;14.70;99.90;;;;;;6372277;22;20027;-67
2024/04/27 11:59:46;;;;;;;2.50;2.28;;;14.70;99.90;;;;;;6372781;22;19999;-67
2024/04/27 12:02:12;;;;;;;2.22;2.03;;;14.70;99.90;;;;;;6371493;22;20104;-67
2024/04/27 12:04:37;;;;;;;2.72;2.45;;;14.70;99.90;;;;;;6370265;22;20319;-67
2024/04/27 12:07:03;;;;;;;79.75;71.60;;;14.70;99.90;;;;;;6372190;22;20018;-67
2024/04/27 12:09:29;;;;;;;4.97;2.92;;;14.70;99.90;;;;;;6372676;22;20007;-67
2024/04/27 12:11:55;;;;;;;5.20;4.75;;;14.60;99.90;;;;;;6373180;22;20040;-67
2024/04/27 12:14:20;;;;;;;3.60;2.83;;;14.60;99.90;;;;;;6372008;22;19999;-67
2024/04/27 12:16:46;;;;;;;6.15;2.70;;;14.60;99.90;;;;;;6373940;22;20003;-68
2024/04/27 12:19:12;;;;;;;2.75;2.55;;;14.50;99.90;;;;;;6373337;22;20003;-67
2024/04/27 12:21:38;;;;;;;3.72;2.47;;;14.60;99.90;;;;;;6373858;22;20015;-68
2024/04/27 12:24:04;;;;;;;2.97;2.60;;;14.70;99.90;;;;;;6373801;22;20003;-68
2024/04/27 12:26:37;;;;;;;2.50;2.30;;;14.80;99.90;;;;;;6371271;22;20003;-67
2024/04/27 12:29:03;;;;;;;2.88;2.28;;;14.90;99.90;;;;;;6373281;22;20017;-67
2024/04/27 12:31:29;;;;;;;2.40;2.13;;;15.00;99.90;;;;;;6372967;22;20079;-67
2024/04/27 12:33:55;;;;;;;3.15;2.33;;;15.00;99.90;;;;;;6373383;22;20017;-67
2024/04/27 12:36:21;;;;;;;3.05;2.35;;;15.00;99.90;;;;;;6373114;22;20014;-67
2024/04/27 12:38:47;;;;;;;3.30;2.05;;;15.00;99.90;;;;;;6371773;22;20018;-67
2024/04/27 12:41:12;;;;;;;2.55;2.10;;;15.10;99.90;;;;;;6372925;22;20003;-67
2024/04/27 12:43:39;;;;;;;2.17;1.98;;;15.20;99.90;;;;;;6373231;22;20003;-68